Time;durP1;ratioP1;P1;durP2;ratioP2;P2;SDS_P1;SDS_P2;PMS_P1;PMS_P2;Temp;Humidity;BMP_temperature;BMP_pressure;BME280_temperature;BME280_humidity;BME280_pressure;Samples;Min_cycle;Max_cycle;Signal;HPM_P1;HPM_P2
2021/01/09 00:01:26;;;;;;;25.25;4.55;;;;;;;;;;5021841;28;20176;-58
2021/01/09 00:03:52;;;;;;;28.45;4.18;;;;;;;;;;5029941;28;20060;-60
2021/01/09 00:06:18;;;;;;;20.23;3.80;;;;;;;;;;5025944;28;20033;-57
2021/01/09 00:08:44;;;;;;;24.67;4.10;;;;;;;;;;5022705;28;20063;-57
2021/01/09 00:11:10;;;;;;;21.70;4.38;;;;;;;;;;5024150;28;20169;-57
2021/01/09 00:13:36;;;;;;;18.50;4.18;;;;;;;;;;5021443;28;20068;-57
2021/01/09 00:16:02;;;;;;;26.55;4.30;;;;;;;;;;5021784;28;20061;-58
2021/01/09 00:18:27;;;;;;;23.92;4.63;;;;;;;;;;5030315;28;20045;-57
2021/01/09 00:20:53;;;;;;;25.65;4.97;;;;;;;;;;5019474;28;20117;-58
2021/01/09 00:23:19;;;;;;;17.88;4.47;;;;;;;;;;5023304;28;20045;-58
2021/01/09 00:25:45;;;;;;;22.35;4.00;;;;;;;;;;5023074;28;20041;-58
2021/01/09 00:28:11;;;;;;;26.58;5.25;;;;;;;;;;5018895;28;20069;-57
2021/01/09 00:30:37;;;;;;;21.83;4.65;;;;;;;;;;5021099;28;20099;-56
2021/01/09 00:33:02;;;;;;;26.67;4.72;;;;;;;;;;5020299;28;20156;-57
2021/01/09 00:35:28;;;;;;;22.63;4.88;;;;;;;;;;5018886;28;20053;-57
2021/01/09 00:37:54;;;;;;;27.45;5.50;;;;;;;;;;5020153;28;22124;-57
2021/01/09 00:40:20;;;;;;;28.80;5.95;;;;;;;;;;5018838;28;20512;-58
2021/01/09 00:42:48;;;;;;;26.63;4.55;;;;;;;;;;5019681;28;20138;-57
2021/01/09 00:45:13;;;;;;;29.23;4.63;;;;;;;;;;5019588;28;20050;-58
2021/01/09 00:47:39;;;;;;;27.25;5.25;;;;;;;;;;5022815;28;20540;-55
2021/01/09 00:50:05;;;;;;;19.92;5.20;;;;;;;;;;5020421;28;20110;-58
2021/01/09 00:52:31;;;;;;;23.98;5.13;;;;;;;;;;5018832;28;20088;-58
2021/01/09 00:54:57;;;;;;;23.55;5.32;;;;;;;;;;5018286;28;20112;-58
2021/01/09 00:57:23;;;;;;;24.02;5.45;;;;;;;;;;5019624;28;20095;-56
2021/01/09 00:59:50;;;;;;;22.80;5.63;;;;;;;;;;5025887;28;20045;-58
2021/01/09 01:02:16;;;;;;;29.88;5.75;;;;;;;;;;5019122;28;20049;-56
2021/01/09 01:04:42;;;;;;;21.77;5.38;;;;;;;;;;5016625;28;20038;-57
2021/01/09 01:07:08;;;;;;;34.60;6.28;;;;;;;;;;5020220;28;20049;-54
2021/01/09 01:09:34;;;;;;;32.83;6.05;;;;;;;;;;5020351;28;20041;-57
2021/01/09 01:12:02;;;;;;;27.85;6.32;;;;;;;;;;5019286;28;20049;-57
2021/01/09 01:14:28;;;;;;;30.00;6.13;;;;;;;;;;5017356;28;20054;-57
2021/01/09 01:16:54;;;;;;;26.67;6.53;;;;;;;;;;5020660;28;20052;-58
2021/01/09 01:19:20;;;;;;;32.13;7.30;;;;;;;;;;5017708;28;21154;-56
2021/01/09 01:21:46;;;;;;;29.63;6.65;;;;;;;;;;5019161;28;20038;-55
2021/01/09 01:24:11;;;;;;;29.92;5.75;;;;;;;;;;5019464;28;20061;-58
2021/01/09 01:26:37;;;;;;;24.15;7.57;;;;;;;;;;5018182;28;20050;-56
2021/01/09 01:29:03;;;;;;;24.83;6.30;;;;;;;;;;5019163;28;20034;-57
2021/01/09 01:31:29;;;;;;;22.20;7.20;;;;;;;;;;5020149;28;20038;-56
2021/01/09 01:33:55;;;;;;;21.05;5.57;;;;;;;;;;5017454;28;20053;-56
2021/01/09 01:36:21;;;;;;;24.00;5.97;;;;;;;;;;5019085;28;20045;-57
2021/01/09 01:38:47;;;;;;;25.00;6.00;;;;;;;;;;5019409;28;20053;-57
2021/01/09 01:41:12;;;;;;;20.63;5.60;;;;;;;;;;5019653;28;20041;-55
2021/01/09 01:43:39;;;;;;;38.15;6.45;;;;;;;;;;5017701;28;20038;-58
2021/01/09 01:46:06;;;;;;;20.08;5.43;;;;;;;;;;5018295;28;20057;-58
2021/01/09 01:48:32;;;;;;;18.45;5.60;;;;;;;;;;5017578;28;20046;-58
2021/01/09 01:50:58;;;;;;;21.60;5.78;;;;;;;;;;5020519;28;20049;-56
2021/01/09 01:53:28;;;;;;;21.50;5.00;;;;;;;;;;5022152;28;20057;-58
2021/01/09 01:55:54;;;;;;;32.10;5.40;;;;;;;;;;5022575;28;20038;-58
2021/01/09 01:58:20;;;;;;;22.13;5.35;;;;;;;;;;5021422;28;20049;-57
2021/01/09 02:00:47;;;;;;;20.55;5.57;;;;;;;;;;5023113;28;20057;-57
2021/01/09 02:03:17;;;;;;;22.33;4.85;;;;;;;;;;5023134;28;20084;-57
2021/01/09 02:05:46;;;;;;;32.70;5.70;;;;;;;;;;5022345;28;20033;-57
2021/01/09 02:08:14;;;;;;;23.55;4.95;;;;;;;;;;5023835;28;20044;-57
2021/01/09 02:10:41;;;;;;;27.17;7.05;;;;;;;;;;5022582;28;20227;-59
2021/01/09 02:13:10;;;;;;;25.65;5.60;;;;;;;;;;5024105;28;20058;-58
2021/01/09 02:15:37;;;;;;;27.55;5.55;;;;;;;;;;5020340;28;20068;-56
2021/01/09 02:18:03;;;;;;;23.88;6.05;;;;;;;;;;5020805;28;20045;-57
2021/01/09 02:20:30;;;;;;;22.17;5.55;;;;;;;;;;5023079;28;20041;-56
2021/01/09 02:22:56;;;;;;;28.27;6.63;;;;;;;;;;5023814;28;20822;-58
2021/01/09 02:25:22;;;;;;;28.25;6.00;;;;;;;;;;5023086;28;20037;-57
2021/01/09 02:27:48;;;;;;;22.15;5.22;;;;;;;;;;5023729;28;20049;-57
2021/01/09 02:30:15;;;;;;;22.23;5.20;;;;;;;;;;5024177;28;20041;-57
2021/01/09 02:33:04;;;;;;;24.83;5.90;;;;;;;;;;5019739;28;20056;-57
2021/01/09 02:35:32;;;;;;;16.50;5.35;;;;;;;;;;5021510;28;20046;-57
2021/01/09 02:37:59;;;;;;;19.98;5.30;;;;;;;;;;5021738;28;20048;-59
2021/01/09 02:40:24;;;;;;;41.38;5.72;;;;;;;;;;5022919;28;20034;-58
2021/01/09 02:42:50;;;;;;;28.98;5.75;;;;;;;;;;5022784;28;20038;-56
2021/01/09 02:45:16;;;;;;;21.98;6.50;;;;;;;;;;5022845;28;20053;-57
2021/01/09 02:47:43;;;;;;;23.58;6.00;;;;;;;;;;5022349;28;20075;-56
2021/01/09 02:50:12;;;;;;;27.48;6.72;;;;;;;;;;5022370;28;20083;-56
2021/01/09 02:52:38;;;;;;;20.67;5.60;;;;;;;;;;5020906;28;20068;-56
2021/01/09 02:55:05;;;;;;;27.80;6.03;;;;;;;;;;5021553;28;20045;-58
2021/01/09 02:57:31;;;;;;;27.70;6.30;;;;;;;;;;5018319;28;20041;-58
2021/01/09 02:59:57;;;;;;;21.23;5.80;;;;;;;;;;5021305;28;20784;-55
2021/01/09 03:02:23;;;;;;;16.17;5.43;;;;;;;;;;5021069;28;20065;-58
2021/01/09 03:04:49;;;;;;;24.35;5.18;;;;;;;;;;5020468;28;20034;-59
2021/01/09 03:07:15;;;;;;;20.15;5.53;;;;;;;;;;5021828;28;20048;-55
2021/01/09 03:09:41;;;;;;;39.47;6.60;;;;;;;;;;5021442;28;21109;-57
2021/01/09 03:12:07;;;;;;;29.65;7.03;;;;;;;;;;5019113;28;20493;-56
2021/01/09 03:14:33;;;;;;;27.15;6.88;;;;;;;;;;5019146;28;20627;-57
2021/01/09 03:16:59;;;;;;;29.58;7.22;;;;;;;;;;5021211;28;20057;-57
2021/01/09 03:19:25;;;;;;;33.67;6.93;;;;;;;;;;5020905;28;20049;-57
2021/01/09 03:21:51;;;;;;;33.33;6.47;;;;;;;;;;5022302;28;20053;-57
2021/01/09 03:24:17;;;;;;;21.45;6.70;;;;;;;;;;5021781;28;20034;-57
2021/01/09 03:26:43;;;;;;;27.88;6.97;;;;;;;;;;5020386;28;20184;-56
2021/01/09 03:29:08;;;;;;;27.48;6.20;;;;;;;;;;5018834;28;20029;-57
2021/01/09 03:31:34;;;;;;;31.75;5.72;;;;;;;;;;5019413;28;20100;-59
2021/01/09 03:34:00;;;;;;;33.20;5.95;;;;;;;;;;5018811;28;20049;-57
2021/01/09 03:36:26;;;;;;;19.35;5.60;;;;;;;;;;5020397;28;20045;-57
2021/01/09 03:38:52;;;;;;;19.95;4.63;;;;;;;;;;5022080;28;20097;-54
2021/01/09 03:41:18;;;;;;;18.60;4.18;;;;;;;;;;5021567;28;20049;-56
2021/01/09 03:43:43;;;;;;;13.55;3.40;;;;;;;;;;5019213;28;20089;-58
2021/01/09 03:46:09;;;;;;;21.75;3.90;;;;;;;;;;5022245;28;20151;-55
2021/01/09 03:48:35;;;;;;;16.10;4.45;;;;;;;;;;5019927;28;20060;-58
2021/01/09 03:51:01;;;;;;;22.65;4.38;;;;;;;;;;5021627;28;20045;-59
2021/01/09 03:53:27;;;;;;;18.50;3.75;;;;;;;;;;5020164;28;20042;-58
2021/01/09 03:55:53;;;;;;;19.30;4.00;;;;;;;;;;5021721;28;20033;-57
2021/01/09 03:58:18;;;;;;;11.32;3.42;;;;;;;;;;5017975;28;20049;-58
2021/01/09 04:00:44;;;;;;;20.58;4.38;;;;;;;;;;5018885;28;20049;-56
2021/01/09 04:03:10;;;;;;;18.60;4.00;;;;;;;;;;5020178;28;20073;-56
2021/01/09 04:05:36;;;;;;;18.92;4.72;;;;;;;;;;5017829;28;20064;-57
2021/01/09 04:08:02;;;;;;;14.48;4.63;;;;;;;;;;5021005;28;20124;-57
2021/01/09 04:10:28;;;;;;;15.20;4.20;;;;;;;;;;5018498;28;20037;-56
2021/01/09 04:12:54;;;;;;;19.35;3.85;;;;;;;;;;5021439;28;20045;-54
2021/01/09 04:15:20;;;;;;;18.52;4.10;;;;;;;;;;5018844;28;20099;-57
2021/01/09 04:17:46;;;;;;;20.00;4.05;;;;;;;;;;5021322;28;20034;-56
2021/01/09 04:20:12;;;;;;;27.70;4.88;;;;;;;;;;5021112;28;20052;-57
2021/01/09 04:22:37;;;;;;;23.73;5.05;;;;;;;;;;5018277;28;20102;-56
2021/01/09 04:25:04;;;;;;;18.77;5.15;;;;;;;;;;5018936;28;20093;-57
2021/01/09 04:27:30;;;;;;;34.63;6.10;;;;;;;;;;5018066;28;20096;-57
2021/01/09 04:29:55;;;;;;;32.85;6.10;;;;;;;;;;5020735;28;20038;-57
2021/01/09 04:32:21;;;;;;;21.55;6.03;;;;;;;;;;5020068;28;20097;-56
2021/01/09 04:34:48;;;;;;;23.83;5.15;;;;;;;;;;5018620;28;20041;-58
2021/01/09 04:37:14;;;;;;;27.02;4.88;;;;;;;;;;5018123;28;20049;-57
2021/01/09 04:39:40;;;;;;;20.33;3.90;;;;;;;;;;5019969;28;20048;-57
2021/01/09 04:42:06;;;;;;;20.23;5.15;;;;;;;;;;5019434;28;20113;-57
2021/01/09 04:44:32;;;;;;;18.05;4.60;;;;;;;;;;5019658;28;20046;-57
2021/01/09 04:47:01;;;;;;;23.17;4.57;;;;;;;;;;5021422;28;20034;-57
2021/01/09 04:49:27;;;;;;;14.88;3.95;;;;;;;;;;5019448;28;20041;-55
2021/01/09 04:51:54;;;;;;;17.23;4.50;;;;;;;;;;5019478;28;20057;-58
2021/01/09 04:54:21;;;;;;;21.98;4.00;;;;;;;;;;5016895;28;20249;-57
2021/01/09 04:56:48;;;;;;;19.67;4.53;;;;;;;;;;5019276;28;20088;-57
2021/01/09 04:59:14;;;;;;;16.80;4.20;;;;;;;;;;5020915;28;20063;-57
2021/01/09 05:01:44;;;;;;;17.70;4.22;;;;;;;;;;5018772;28;20594;-57
2021/01/09 05:04:10;;;;;;;19.85;4.05;;;;;;;;;;5020788;28;20045;-59
2021/01/09 05:06:37;;;;;;;21.50;4.18;;;;;;;;;;5021241;28;20037;-55
2021/01/09 05:09:03;;;;;;;14.70;3.60;;;;;;;;;;5020882;28;20033;-56
2021/01/09 05:11:31;;;;;;;23.88;3.80;;;;;;;;;;5016822;28;20037;-55
2021/01/09 05:13:57;;;;;;;17.00;3.85;;;;;;;;;;5019102;28;20049;-57
2021/01/09 05:16:24;;;;;;;15.48;3.55;;;;;;;;;;5019459;28;20040;-56
2021/01/09 05:18:50;;;;;;;27.60;4.32;;;;;;;;;;5018865;28;20041;-56
2021/01/09 05:21:17;;;;;;;14.93;4.13;;;;;;;;;;5020409;28;20056;-55
2021/01/09 05:23:54;;;;;;;12.43;3.30;;;;;;;;;;5018646;28;20057;-58
2021/01/09 05:26:21;;;;;;;14.32;3.38;;;;;;;;;;5019821;28;20171;-55
2021/01/09 05:28:48;;;;;;;19.48;4.03;;;;;;;;;;5021761;28;20504;-57
2021/01/09 05:31:14;;;;;;;12.52;3.15;;;;;;;;;;5022252;28;20068;-57
2021/01/09 05:33:40;;;;;;;19.90;3.47;;;;;;;;;;5023038;28;20128;-58
2021/01/09 05:36:06;;;;;;;14.73;4.20;;;;;;;;;;5022739;28;20107;-53
2021/01/09 05:38:36;;;;;;;15.25;3.92;;;;;;;;;;5022820;28;20046;-57
2021/01/09 05:41:09;;;;;;;18.00;4.57;;;;;;;;;;5023341;28;20038;-57
2021/01/09 05:43:35;;;;;;;;;;;;;;;;;;5021927;28;20071;-55
2021/01/09 05:46:01;;;;;;;16.50;3.50;;;;;;;;;;5023089;28;19917;-57
2021/01/09 05:48:28;;;;;;;16.85;3.80;;;;;;;;;;5021256;28;20033;-58
2021/01/09 05:50:55;;;;;;;14.48;4.03;;;;;;;;;;5023332;28;20046;-56
2021/01/09 05:53:37;;;;;;;14.85;3.85;;;;;;;;;;5021131;28;20050;-56
2021/01/09 05:56:03;;;;;;;14.65;3.38;;;;;;;;;;5023154;28;20105;-55
2021/01/09 05:58:30;;;;;;;23.17;4.10;;;;;;;;;;5022799;28;20042;-58
2021/01/09 06:01:02;;;;;;;17.10;3.83;;;;;;;;;;5022571;28;20053;-57
2021/01/09 06:03:38;;;;;;;14.93;3.85;;;;;;;;;;5020979;28;20093;-56
2021/01/09 06:06:23;;;;;;;9.80;3.97;;;;;;;;;;5022247;28;20046;-56
2021/01/09 06:08:53;;;;;;;11.68;3.90;;;;;;;;;;5022305;28;20605;-57
2021/01/09 06:11:23;;;;;;;20.77;4.20;;;;;;;;;;5021979;28;20050;-57
2021/01/09 06:13:50;;;;;;;11.02;3.30;;;;;;;;;;5013310;28;20533;-57
2021/01/09 06:16:17;;;;;;;15.45;4.07;;;;;;;;;;5021935;28;20045;-58
2021/01/09 06:18:43;;;;;;;21.17;4.10;;;;;;;;;;5023733;28;20038;-57
2021/01/09 06:21:10;;;;;;;18.77;3.85;;;;;;;;;;5022936;28;20042;-57
2021/01/09 06:23:36;;;;;;;21.20;3.90;;;;;;;;;;5021492;28;20061;-57
2021/01/09 06:26:02;;;;;;;14.65;3.83;;;;;;;;;;5012866;28;20959;-55
2021/01/09 06:28:32;;;;;;;17.60;4.85;;;;;;;;;;5022113;28;20033;-57
2021/01/09 06:30:58;;;;;;;14.50;3.95;;;;;;;;;;5021547;28;20048;-57
2021/01/09 06:33:27;;;;;;;11.88;3.15;;;;;;;;;;5022222;28;21487;-57
2021/01/09 06:35:54;;;;;;;13.55;3.38;;;;;;;;;;5022471;28;20042;-56
2021/01/09 06:38:21;;;;;;;16.80;3.95;;;;;;;;;;5022180;28;20046;-58
2021/01/09 06:40:49;;;;;;;15.90;3.72;;;;;;;;;;5019211;28;20050;-57
2021/01/09 06:43:17;;;;;;;11.25;3.25;;;;;;;;;;5020052;28;20026;-56
2021/01/09 06:45:43;;;;;;;21.92;4.45;;;;;;;;;;5021361;28;20033;-57
2021/01/09 06:48:09;;;;;;;19.17;4.68;;;;;;;;;;5021929;28;20044;-58
2021/01/09 06:50:35;;;;;;;14.30;3.42;;;;;;;;;;5017580;28;20077;-58
2021/01/09 06:53:01;;;;;;;18.58;3.78;;;;;;;;;;5012672;28;20045;-55
2021/01/09 06:55:36;;;;;;;8.77;3.10;;;;;;;;;;5017031;28;20042;-57
2021/01/09 06:58:05;;;;;;;14.70;3.17;;;;;;;;;;5022800;28;20042;-58
2021/01/09 07:00:31;;;;;;;16.15;3.20;;;;;;;;;;5023151;28;20042;-58
2021/01/09 07:03:09;;;;;;;9.68;2.72;;;;;;;;;;5027493;28;20042;-57
2021/01/09 07:05:42;;;;;;;9.48;2.55;;;;;;;;;;5021298;28;20052;-57
2021/01/09 07:08:08;;;;;;;8.07;2.63;;;;;;;;;;5021743;28;20097;-56
2021/01/09 07:10:43;;;;;;;13.35;2.55;;;;;;;;;;5021108;28;20318;-56
2021/01/09 07:13:10;;;;;;;12.90;2.30;;;;;;;;;;5020324;28;20406;-55
2021/01/09 07:15:37;;;;;;;10.35;2.05;;;;;;;;;;5021691;28;20044;-57
2021/01/09 07:18:05;;;;;;;11.35;2.65;;;;;;;;;;5022007;28;20041;-57
2021/01/09 07:20:38;;;;;;;17.52;3.08;;;;;;;;;;5019929;28;20196;-57
2021/01/09 07:23:08;;;;;;;11.50;3.17;;;;;;;;;;5021172;28;20069;-57
2021/01/09 07:25:38;;;;;;;9.88;3.03;;;;;;;;;;5021928;28;20093;-58
2021/01/09 07:28:06;;;;;;;13.13;3.38;;;;;;;;;;5021757;28;20073;-57
2021/01/09 07:30:32;;;;;;;14.15;2.53;;;;;;;;;;5022443;28;20157;-54
2021/01/09 07:33:00;;;;;;;10.55;3.10;;;;;;;;;;5021159;28;20049;-57
2021/01/09 07:35:27;;;;;;;11.85;2.60;;;;;;;;;;5021512;28;20516;-58
2021/01/09 07:37:57;;;;;;;10.20;2.60;;;;;;;;;;5021657;28;20068;-55
2021/01/09 07:40:24;;;;;;;10.45;2.90;;;;;;;;;;5022573;28;20041;-57
2021/01/09 07:42:50;;;;;;;6.40;2.40;;;;;;;;;;5019883;28;20045;-58
2021/01/09 07:45:17;;;;;;;19.90;3.50;;;;;;;;;;5022014;28;20033;-58
2021/01/09 07:47:45;;;;;;;12.30;2.90;;;;;;;;;;5021374;28;20493;-57
2021/01/09 07:50:12;;;;;;;8.82;3.05;;;;;;;;;;5018295;28;20136;-58
2021/01/09 07:52:38;;;;;;;16.40;3.15;;;;;;;;;;5021171;28;20103;-55
2021/01/09 07:55:05;;;;;;;12.23;3.10;;;;;;;;;;5019151;28;20369;-57
2021/01/09 07:57:31;;;;;;;12.60;2.80;;;;;;;;;;5020247;28;20049;-57
2021/01/09 07:59:57;;;;;;;11.02;2.83;;;;;;;;;;5019170;28;20042;-57
2021/01/09 08:02:22;;;;;;;10.60;2.85;;;;;;;;;;5020314;28;20065;-56
2021/01/09 08:04:48;;;;;;;14.50;2.83;;;;;;;;;;5019721;28;20049;-57
2021/01/09 08:07:18;;;;;;;10.38;3.50;;;;;;;;;;5021267;28;20042;-57
2021/01/09 08:09:44;;;;;;;13.60;3.83;;;;;;;;;;5021057;28;20126;-57
2021/01/09 08:12:10;;;;;;;10.90;2.63;;;;;;;;;;5020265;28;20257;-58
2021/01/09 08:14:35;;;;;;;20.83;3.67;;;;;;;;;;5019523;28;20046;-58
2021/01/09 08:17:10;;;;;;;10.30;3.55;;;;;;;;;;5020746;28;20044;-56
2021/01/09 08:19:36;;;;;;;10.60;2.92;;;;;;;;;;5020704;28;20056;-57
2021/01/09 08:22:05;;;;;;;10.48;2.50;;;;;;;;;;5020730;28;20033;-57
2021/01/09 08:24:31;;;;;;;7.25;2.83;;;;;;;;;;5018275;28;20141;-57
2021/01/09 08:26:57;;;;;;;14.13;2.58;;;;;;;;;;5020220;28;20065;-56
2021/01/09 08:29:27;;;;;;;9.93;2.40;;;;;;;;;;5018844;28;20100;-58
2021/01/09 08:31:54;;;;;;;10.15;3.17;;;;;;;;;;5021195;28;20112;-56
2021/01/09 08:34:20;;;;;;;10.27;3.00;;;;;;;;;;5019095;28;20060;-57
2021/01/09 08:36:51;;;;;;;8.30;2.45;;;;;;;;;;5019736;28;20060;-57
2021/01/09 08:39:17;;;;;;;11.23;2.80;;;;;;;;;;5017957;28;20072;-57
2021/01/09 08:41:43;;;;;;;11.35;3.05;;;;;;;;;;5019237;28;20042;-58
2021/01/09 08:44:10;;;;;;;8.48;2.60;;;;;;;;;;5018962;28;20061;-57
2021/01/09 08:46:36;;;;;;;11.38;2.72;;;;;;;;;;5018519;28;20100;-57
2021/01/09 08:49:03;;;;;;;10.27;2.50;;;;;;;;;;5020315;28;20048;-57
2021/01/09 08:51:30;;;;;;;8.00;2.72;;;;;;;;;;5019361;28;20102;-56
2021/01/09 08:53:56;;;;;;;8.23;3.28;;;;;;;;;;5019597;28;20141;-57
2021/01/09 08:56:27;;;;;;;12.25;2.60;;;;;;;;;;5020203;28;20037;-57
2021/01/09 08:58:53;;;;;;;11.23;3.15;;;;;;;;;;5019709;28;20049;-57
2021/01/09 09:01:21;;;;;;;6.13;2.20;;;;;;;;;;5018474;28;20054;-57
2021/01/09 09:03:48;;;;;;;7.00;1.75;;;;;;;;;;5019489;28;20167;-57
2021/01/09 09:06:14;;;;;;;6.65;2.22;;;;;;;;;;5021568;28;20037;-57
2021/01/09 09:08:41;;;;;;;7.75;1.88;;;;;;;;;;5017893;28;20061;-57
2021/01/09 09:11:07;;;;;;;8.98;2.15;;;;;;;;;;5021585;28;20093;-57
2021/01/09 09:13:33;;;;;;;12.07;2.05;;;;;;;;;;5018970;28;20061;-58
2021/01/09 09:16:14;;;;;;;11.43;2.03;;;;;;;;;;5020984;28;20121;-57
2021/01/09 09:18:41;;;;;;;3.35;1.10;;;;;;;;;;5018107;28;20111;-58
2021/01/09 09:21:08;;;;;;;4.30;1.23;;;;;;;;;;5020549;28;20041;-58
2021/01/09 09:23:34;;;;;;;3.30;1.10;;;;;;;;;;5019626;28;21924;-58
2021/01/09 09:26:02;;;;;;;4.97;1.20;;;;;;;;;;5038132;28;20037;-58
2021/01/09 09:28:28;;;;;;;6.95;0.98;;;;;;;;;;5038776;28;20055;-57
2021/01/09 09:30:54;;;;;;;2.95;0.95;;;;;;;;;;5040095;28;20041;-58
2021/01/09 09:33:20;;;;;;;3.30;0.90;;;;;;;;;;5037458;28;20053;-58
2021/01/09 09:35:46;;;;;;;4.40;1.00;;;;;;;;;;5039930;28;20059;-53
2021/01/09 09:38:12;;;;;;;1.85;0.60;;;;;;;;;;5038361;28;20040;-56
2021/01/09 09:40:39;;;;;;;4.95;1.00;;;;;;;;;;5038410;28;20033;-57
2021/01/09 09:43:11;;;;;;;1.50;0.55;;;;;;;;;;5038745;28;20049;-56
2021/01/09 09:45:37;;;;;;;1.98;0.47;;;;;;;;;;5037470;28;20053;-56
2021/01/09 09:48:03;;;;;;;4.40;0.68;;;;;;;;;;5039710;28;20044;-56
2021/01/09 09:50:33;;;;;;;3.55;0.80;;;;;;;;;;5040809;28;20037;-54
2021/01/09 09:53:00;;;;;;;2.80;0.85;;;;;;;;;;5036931;28;20046;-56
2021/01/09 09:55:26;;;;;;;1.75;0.60;;;;;;;;;;5038012;28;20067;-56
2021/01/09 09:58:04;;;;;;;3.33;0.82;;;;;;;;;;5039461;28;20113;-57
2021/01/09 10:00:30;;;;;;;2.13;0.60;;;;;;;;;;5037068;28;20040;-57
2021/01/09 10:02:56;;;;;;;2.05;0.57;;;;;;;;;;5032054;28;20045;-56
2021/01/09 10:05:23;;;;;;;2.65;0.85;;;;;;;;;;5017795;28;20057;-57
2021/01/09 10:07:49;;;;;;;2.08;0.57;;;;;;;;;;5021220;28;20041;-56
2021/01/09 10:10:15;;;;;;;2.97;0.82;;;;;;;;;;5019397;28;20098;-55
2021/01/09 10:12:41;;;;;;;4.57;0.80;;;;;;;;;;5021417;28;20308;-56
2021/01/09 10:15:10;;;;;;;9.15;0.90;;;;;;;;;;5027081;28;20042;-57
2021/01/09 10:17:36;;;;;;;2.83;0.95;;;;;;;;;;5021373;28;20068;-56
2021/01/09 10:20:02;;;;;;;4.25;1.10;;;;;;;;;;5023160;28;20383;-57
2021/01/09 10:22:28;;;;;;;4.32;1.20;;;;;;;;;;5022859;28;20038;-54
2021/01/09 10:24:54;;;;;;;3.88;1.20;;;;;;;;;;5021737;28;20057;-56
2021/01/09 10:27:20;;;;;;;3.45;1.10;;;;;;;;;;5021324;28;20041;-57
2021/01/09 10:29:46;;;;;;;3.45;1.13;;;;;;;;;;5022230;28;20125;-54
2021/01/09 10:32:11;;;;;;;5.22;1.13;;;;;;;;;;5022306;28;20034;-56
2021/01/09 10:34:37;;;;;;;4.95;1.00;;;;;;;;;;5020786;28;20042;-56
2021/01/09 10:37:03;;;;;;;3.40;0.98;;;;;;;;;;5022616;28;20033;-56
2021/01/09 10:39:29;;;;;;;3.58;1.40;;;;;;;;;;5026254;28;20744;-56
2021/01/09 10:41:55;;;;;;;3.13;0.60;;;;;;;;;;5024295;28;20045;-56
2021/01/09 10:44:21;;;;;;;5.95;0.80;;;;;;;;;;5021033;28;20137;-56
2021/01/09 10:46:47;;;;;;;2.65;0.80;;;;;;;;;;5021419;28;20038;-55
2021/01/09 10:49:12;;;;;;;2.67;0.75;;;;;;;;;;5021812;28;20123;-57
2021/01/09 10:51:38;;;;;;;3.67;0.95;;;;;;;;;;5021402;28;20064;-57
2021/01/09 10:54:04;;;;;;;3.97;0.80;;;;;;;;;;5022006;28;20049;-55
2021/01/09 10:56:30;;;;;;;2.53;0.73;;;;;;;;;;5021233;28;20046;-58
2021/01/09 10:58:56;;;;;;;3.72;0.88;;;;;;;;;;5021371;28;20045;-58
2021/01/09 11:01:22;;;;;;;3.65;0.90;;;;;;;;;;5019340;28;20105;-56
2021/01/09 11:03:48;;;;;;;3.90;0.90;;;;;;;;;;5038659;28;20065;-56
2021/01/09 11:06:21;;;;;;;2.63;0.65;;;;;;;;;;5022485;28;20041;-56
2021/01/09 11:08:47;;;;;;;3.92;0.80;;;;;;;;;;5021784;28;20172;-57
2021/01/09 11:11:13;;;;;;;2.08;0.60;;;;;;;;;;5021845;28;20502;-57
2021/01/09 11:13:38;;;;;;;3.47;0.95;;;;;;;;;;5020890;28;20050;-57
2021/01/09 11:16:04;;;;;;;3.10;0.70;;;;;;;;;;5021732;28;20109;-57
2021/01/09 11:18:30;;;;;;;1.73;0.57;;;;;;;;;;5020849;28;20045;-58
2021/01/09 11:20:56;;;;;;;1.38;0.38;;;;;;;;;;5023464;28;20052;-57
2021/01/09 11:23:22;;;;;;;3.10;0.77;;;;;;;;;;5020516;28;20049;-54
2021/01/09 11:25:48;;;;;;;3.22;0.55;;;;;;;;;;5019043;28;20053;-56
2021/01/09 11:28:15;;;;;;;4.63;0.90;;;;;;;;;;5020108;28;20536;-57
2021/01/09 11:30:41;;;;;;;2.65;0.60;;;;;;;;;;5019272;28;20139;-55
2021/01/09 11:33:07;;;;;;;2.38;0.80;;;;;;;;;;5020605;28;20054;-57
2021/01/09 11:35:34;;;;;;;2.63;0.60;;;;;;;;;;5020088;28;20041;-57
2021/01/09 11:37:59;;;;;;;2.20;0.65;;;;;;;;;;5020659;28;20381;-57
2021/01/09 11:40:26;;;;;;;1.73;0.43;;;;;;;;;;5020091;28;20052;-55
2021/01/09 11:42:52;;;;;;;3.20;0.63;;;;;;;;;;5020160;28;20132;-58
2021/01/09 11:45:18;;;;;;;2.53;0.52;;;;;;;;;;5022512;28;20088;-59
2021/01/09 11:47:44;;;;;;;1.83;0.60;;;;;;;;;;5021298;28;20076;-57
2021/01/09 11:50:11;;;;;;;2.05;0.60;;;;;;;;;;5020339;28;20933;-57
2021/01/09 11:52:37;;;;;;;4.75;0.60;;;;;;;;;;5019838;28;20052;-55
2021/01/09 11:55:03;;;;;;;2.38;0.60;;;;;;;;;;5032626;28;20043;-57
2021/01/09 11:57:29;;;;;;;2.17;0.60;;;;;;;;;;5022262;28;20045;-57
2021/01/09 11:59:55;;;;;;;1.42;0.50;;;;;;;;;;5021828;28;20885;-58
2021/01/09 12:02:21;;;;;;;1.50;0.40;;;;;;;;;;5021739;28;20425;-57
2021/01/09 12:04:47;;;;;;;4.88;0.70;;;;;;;;;;5021996;28;22813;-59
2021/01/09 12:07:13;;;;;;;2.22;0.60;;;;;;;;;;5021807;28;20033;-59
2021/01/09 12:09:38;;;;;;;1.75;0.50;;;;;;;;;;5019409;28;20046;-59
2021/01/09 12:12:05;;;;;;;2.90;0.50;;;;;;;;;;5018589;28;20034;-59
2021/01/09 12:14:31;;;;;;;1.08;0.40;;;;;;;;;;5018972;28;20057;-59
2021/01/09 12:16:58;;;;;;;1.15;0.40;;;;;;;;;;5020808;28;20044;-58
2021/01/09 12:19:24;;;;;;;2.25;0.55;;;;;;;;;;5019733;28;20045;-59
2021/01/09 12:21:51;;;;;;;2.00;0.40;;;;;;;;;;5020621;28;20410;-58
2021/01/09 12:24:17;;;;;;;2.38;0.60;;;;;;;;;;5021917;28;20064;-58
2021/01/09 12:26:43;;;;;;;1.15;0.40;;;;;;;;;;5018345;28;20054;-58
2021/01/09 12:29:09;;;;;;;1.92;0.50;;;;;;;;;;5018128;28;20034;-56
2021/01/09 12:31:36;;;;;;;2.88;0.57;;;;;;;;;;5018846;28;20034;-57
2021/01/09 12:34:02;;;;;;;1.33;0.50;;;;;;;;;;5019025;28;20050;-57
2021/01/09 12:36:28;;;;;;;0.88;0.32;;;;;;;;;;5035334;28;23323;-57
2021/01/09 12:38:54;;;;;;;1.55;0.47;;;;;;;;;;5020513;28;20080;-58
2021/01/09 12:41:20;;;;;;;1.42;0.50;;;;;;;;;;5020357;28;20037;-58
2021/01/09 12:43:46;;;;;;;2.15;0.60;;;;;;;;;;5020760;28;20109;-58
2021/01/09 12:46:12;;;;;;;1.30;0.43;;;;;;;;;;5020907;28;20085;-58
2021/01/09 12:48:38;;;;;;;1.95;0.50;;;;;;;;;;5019083;28;20310;-58
2021/01/09 12:51:04;;;;;;;1.30;0.40;;;;;;;;;;5019889;28;20056;-57
2021/01/09 12:53:31;;;;;;;1.70;0.40;;;;;;;;;;5020039;28;20590;-57
2021/01/09 12:56:04;;;;;;;1.52;0.40;;;;;;;;;;5020114;28;20044;-58
2021/01/09 12:58:31;;;;;;;3.75;0.47;;;;;;;;;;5018239;28;20073;-57
2021/01/09 13:00:57;;;;;;;1.90;0.50;;;;;;;;;;5021366;28;20050;-57
2021/01/09 13:03:23;;;;;;;1.42;0.40;;;;;;;;;;5021262;28;20052;-62
2021/01/09 13:05:49;;;;;;;1.30;0.50;;;;;;;;;;5021863;28;20033;-57
2021/01/09 13:08:15;;;;;;;2.17;0.52;;;;;;;;;;5020791;28;20052;-56
2021/01/09 13:10:41;;;;;;;2.83;0.50;;;;;;;;;;5026823;28;20034;-57
2021/01/09 13:13:07;;;;;;;1.95;0.55;;;;;;;;;;5025060;28;20106;-57
2021/01/09 13:15:36;;;;;;;1.65;0.43;;;;;;;;;;5019512;28;20133;-58
2021/01/09 13:18:02;;;;;;;1.83;0.50;;;;;;;;;;5018078;28;20042;-57
2021/01/09 13:20:27;;;;;;;5.22;0.60;;;;;;;;;;5020450;28;20071;-57
2021/01/09 13:22:53;;;;;;;1.48;0.40;;;;;;;;;;5020146;28;20049;-54
2021/01/09 13:25:19;;;;;;;2.97;0.65;;;;;;;;;;5019548;28;20045;-58
2021/01/09 13:27:45;;;;;;;2.15;0.60;;;;;;;;;;5019872;28;20050;-57
2021/01/09 13:30:12;;;;;;;2.47;0.50;;;;;;;;;;5020002;28;20041;-58
2021/01/09 13:32:38;;;;;;;3.60;0.70;;;;;;;;;;5017252;28;20046;-58
2021/01/09 13:35:04;;;;;;;1.25;0.50;;;;;;;;;;5018990;28;20357;-57
2021/01/09 13:37:30;;;;;;;4.97;0.77;;;;;;;;;;5017268;28;20057;-57
2021/01/09 13:39:56;;;;;;;3.40;0.50;;;;;;;;;;5020281;28;20052;-57
2021/01/09 13:42:22;;;;;;;2.67;0.50;;;;;;;;;;5020074;28;20025;-57
2021/01/09 13:44:49;;;;;;;0.70;0.40;;;;;;;;;;5021629;28;20046;-57
2021/01/09 13:47:15;;;;;;;2.40;0.60;;;;;;;;;;5020756;28;20039;-57
2021/01/09 13:49:42;;;;;;;4.55;0.60;;;;;;;;;;5023799;28;20045;-56
2021/01/09 13:52:08;;;;;;;1.45;0.50;;;;;;;;;;5023488;28;20030;-57
2021/01/09 13:54:34;;;;;;;3.20;0.60;;;;;;;;;;5022382;28;20073;-56
2021/01/09 13:57:00;;;;;;;1.73;0.50;;;;;;;;;;5023949;28;20041;-57
2021/01/09 13:59:26;;;;;;;1.48;0.50;;;;;;;;;;5023110;28;20038;-58
2021/01/09 14:01:52;;;;;;;1.75;0.60;;;;;;;;;;5023985;28;20418;-57
2021/01/09 14:04:18;;;;;;;1.85;0.50;;;;;;;;;;5022541;28;20038;-57
2021/01/09 14:06:47;;;;;;;2.72;0.70;;;;;;;;;;5023676;28;20041;-58
2021/01/09 14:09:14;;;;;;;5.50;0.60;;;;;;;;;;5024187;28;20768;-57
2021/01/09 14:11:40;;;;;;;1.77;0.50;;;;;;;;;;5023221;28;20044;-57
2021/01/09 14:14:07;;;;;;;2.60;0.50;;;;;;;;;;5023047;28;20054;-56
2021/01/09 14:16:33;;;;;;;1.77;0.60;;;;;;;;;;5021197;28;20060;-58
2021/01/09 14:19:03;;;;;;;3.75;0.60;;;;;;;;;;5021897;28;20038;-56
2021/01/09 14:21:29;;;;;;;2.15;0.65;;;;;;;;;;5021049;28;20042;-56
2021/01/09 14:23:55;;;;;;;2.97;0.60;;;;;;;;;;5023771;28;20114;-55
2021/01/09 14:26:31;;;;;;;5.28;0.68;;;;;;;;;;5023004;28;20054;-56
2021/01/09 14:28:58;;;;;;;1.88;0.60;;;;;;;;;;5022852;28;20065;-56
2021/01/09 14:31:25;;;;;;;3.97;0.80;;;;;;;;;;5025393;28;20049;-53
2021/01/09 14:33:51;;;;;;;1.65;0.60;;;;;;;;;;5022313;28;20065;-57